Time;durP1;ratioP1;P1;durP2;ratioP2;P2;SDS_P1;SDS_P2;PMS_P1;PMS_P2;Temp;Humidity;BMP_temperature;BMP_pressure;BME280_temperature;BME280_humidity;BME280_pressure;Samples;Min_cycle;Max_cycle;Signal;HPM_P1;HPM_P2
2022/06/01 00:03:11;;;;;;;3.33;1.80;;;;;;;13.71;63.60;99500.31;12227866;19;20015;-78
2022/06/01 00:07:13;;;;;;;2.05;1.38;;;;;;;13.68;63.63;99490.63;12204603;19;20105;-77
2022/06/01 00:11:16;;;;;;;2.05;1.42;;;;;;;13.62;63.63;99508.38;12215969;19;20028;-80
2022/06/01 00:15:22;;;;;;;2.63;1.38;;;;;;;13.52;63.72;99508.34;12227314;19;20011;-82
2022/06/01 00:19:24;;;;;;;2.80;1.73;;;;;;;13.44;63.87;99506.97;12195655;19;20086;-80
2022/06/01 00:23:25;;;;;;;2.85;1.20;;;;;;;13.34;63.94;99501.41;12221838;19;20013;-82
2022/06/01 00:27:27;;;;;;;4.85;1.88;;;;;;;13.18;64.14;99508.84;12223188;19;20051;-81
2022/06/01 00:31:29;;;;;;;3.85;1.42;;;;;;;13.01;65.08;99502.72;12210450;19;20014;-79
2022/06/01 00:35:31;;;;;;;2.45;1.38;;;;;;;12.91;65.46;99511.84;12233647;19;20073;-81
2022/06/01 00:39:34;;;;;;;2.40;1.40;;;;;;;12.88;65.52;99512.38;12213513;19;20019;-79
2022/06/01 00:43:42;;;;;;;2.95;1.60;;;;;;;12.93;65.38;99522.63;12193471;19;20011;-81
2022/06/01 00:47:44;;;;;;;3.83;1.63;;;;;;;12.98;65.45;99519.88;12214851;19;20030;-80
2022/06/01 00:51:48;;;;;;;2.60;1.75;;;;;;;12.99;65.13;99527.88;12200061;19;20015;-80
2022/06/01 00:56:00;;;;;;;3.05;1.90;;;;;;;12.96;65.61;99522.06;12218174;19;20078;-79
2022/06/01 01:00:07;;;;;;;3.07;1.67;;;;;;;12.94;65.95;99521.53;12221481;19;20107;-82
2022/06/01 01:04:10;;;;;;;3.35;1.73;;;;;;;12.94;65.70;99527.06;12194177;19;20019;-80
2022/06/01 01:08:12;;;;;;;4.70;1.83;;;;;;;12.90;66.52;99523.16;12228698;19;20010;-79
2022/06/01 01:12:14;;;;;;;6.63;2.03;;;;;;;12.82;66.95;99504.31;12215560;19;20031;-82
2022/06/01 01:16:16;;;;;;;3.00;1.77;;;;;;;12.69;67.50;99497.38;12185725;19;20007;-83
2022/06/01 01:20:20;;;;;;;2.55;1.80;;;;;;;12.59;68.15;99497.38;12220111;19;20110;-80
2022/06/01 01:24:47;;;;;;;2.90;1.60;;;;;;;12.46;69.08;99502.28;12229006;19;20027;-82
2022/06/01 01:28:48;;;;;;;4.13;1.70;;;;;;;12.36;69.30;99493.13;12201209;19;20054;-81
2022/06/01 01:32:51;;;;;;;2.78;1.75;;;;;;;12.29;69.80;99488.66;12218907;19;20027;-79
2022/06/01 01:36:56;;;;;;;2.45;1.77;;;;;;;12.32;70.04;99488.13;12189699;19;20030;-82
2022/06/01 01:41:30;;;;;;;6.53;1.70;;;;;;;12.37;69.77;99492.00;12227819;19;20022;-81
2022/06/01 01:45:34;;;;;;;2.90;1.55;;;;;;;12.31;69.37;99497.53;12226481;19;20015;-81
2022/06/01 01:49:38;;;;;;;4.65;2.10;;;;;;;12.26;69.64;99504.97;12195719;19;20038;-82
2022/06/01 01:53:39;;;;;;;5.88;3.05;;;;;;;12.28;70.44;99498.06;12210762;19;20083;-81
2022/06/01 01:57:50;;;;;;;3.40;1.85;;;;;;;12.33;70.88;99502.78;12182696;19;20134;-82
2022/06/01 02:02:17;;;;;;;4.63;2.20;;;;;;;12.37;71.39;99503.88;12206001;19;20030;-81
2022/06/01 02:06:29;;;;;;;5.00;2.20;;;;;;;12.41;71.34;99504.19;12202073;19;20003;-82
2022/06/01 02:14:56;;;;;;;3.25;2.15;;;;;;;12.53;71.17;99513.91;12199613;19;20006;-80
2022/06/01 02:19:01;;;;;;;3.78;2.40;;;;;;;12.57;71.15;99496.78;12181048;19;20268;-80
2022/06/01 02:23:04;;;;;;;3.25;2.05;;;;;;;12.59;71.64;99498.19;12198024;19;20010;-80
2022/06/01 02:27:08;;;;;;;4.85;2.58;;;;;;;12.61;71.80;99492.38;12205870;19;20014;-80
2022/06/01 02:31:10;;;;;;;5.35;2.95;;;;;;;12.63;71.76;99493.78;12173918;19;20085;-79
2022/06/01 02:35:15;;;;;;;4.60;2.88;;;;;;;12.64;71.83;99489.06;12205615;19;20006;-80
2022/06/01 02:39:17;;;;;;;8.68;2.78;;;;;;;12.63;72.32;99485.47;12205785;19;20042;-81
2022/06/01 02:43:19;;;;;;;4.57;2.53;;;;;;;12.62;72.52;99494.88;12181072;19;20039;-80
2022/06/01 02:47:22;;;;;;;4.63;2.65;;;;;;;12.58;72.18;99492.91;12197139;19;20006;-81
2022/06/01 02:51:24;;;;;;;5.03;2.80;;;;;;;12.50;72.22;99494.28;12204892;19;20011;-81
2022/06/01 02:55:27;;;;;;;4.13;2.42;;;;;;;12.46;72.62;99494.00;12178495;19;20011;-81
2022/06/01 02:59:29;;;;;;;5.07;2.75;;;;;;;12.39;73.33;99498.09;12201638;19;20034;-81
2022/06/01 03:03:31;;;;;;;5.45;2.78;;;;;;;12.36;73.35;99506.94;12191322;19;20031;-82
2022/06/01 03:07:33;;;;;;;6.35;2.67;;;;;;;12.25;73.68;99512.38;12177616;19;20014;-80
2022/06/01 03:11:35;;;;;;;7.45;3.17;;;;;;;12.20;74.32;99520.66;12199014;19;20582;-83
2022/06/01 03:15:37;;;;;;;5.32;3.45;;;;;;;12.14;74.54;99521.75;12179052;19;20074;-82
2022/06/01 03:19:38;;;;;;;5.53;2.70;;;;;;;12.00;75.45;99523.31;12196894;19;20010;-81
2022/06/01 03:23:40;;;;;;;5.50;2.92;;;;;;;11.91;75.55;99516.63;12205115;19;20337;-80
2022/06/01 03:27:42;;;;;;;5.68;2.95;;;;;;;11.89;76.10;99522.38;12191667;19;20059;-81
2022/06/01 03:31:44;;;;;;;8.37;2.83;;;;;;;11.92;76.20;99534.84;12204427;19;20021;-80
2022/06/01 03:35:46;;;;;;;4.95;3.20;;;;;;;11.85;76.92;99527.63;12213063;19;20283;-81
2022/06/01 03:39:47;;;;;;;5.35;3.35;;;;;;;11.77;76.41;99527.25;12189828;19;20417;-82
2022/06/01 03:48:09;;;;;;;6.28;3.80;;;;;;;11.57;78.07;99539.81;12204811;19;20081;-83
2022/06/01 03:52:11;;;;;;;8.20;3.85;;;;;;;11.56;78.29;99526.25;12195508;19;20017;-81
2022/06/01 03:56:13;;;;;;;6.05;3.60;;;;;;;11.54;78.70;99534.81;12204821;19;20029;-81
2022/06/01 04:00:21;;;;;;;7.82;3.63;;;;;;;11.55;79.03;99527.34;12214631;19;20024;-80
2022/06/01 04:04:22;;;;;;;7.40;3.55;;;;;;;11.56;79.02;99538.13;12183047;19;20501;-83
2022/06/01 04:08:24;;;;;;;7.18;3.90;;;;;;;11.55;78.90;99541.97;12219957;19;20010;-81
2022/06/01 04:12:26;;;;;;;6.80;3.72;;;;;;;11.58;79.41;99557.19;12212961;19;20088;-79
2022/06/01 04:16:28;;;;;;;9.48;4.47;;;;;;;11.60;79.71;99547.56;12179545;19;20080;-81
2022/06/01 04:20:30;;;;;;;6.38;4.22;;;;;;;11.66;80.14;99559.47;12211168;19;20018;-80
2022/06/01 04:24:34;;;;;;;6.10;3.30;;;;;;;11.68;80.34;99560.03;12214614;19;20454;-79
2022/06/01 04:28:35;;;;;;;8.10;3.42;;;;;;;11.66;80.61;99559.47;12190233;19;20491;-81
2022/06/01 04:32:37;;;;;;;8.18;4.47;;;;;;;11.59;81.79;99554.16;12213838;19;20031;-79
2022/06/01 04:36:39;;;;;;;5.70;3.65;;;;;;;11.51;82.05;99562.06;12179107;19;20018;-79
2022/06/01 04:40:43;;;;;;;7.40;3.97;;;;;;;11.48;82.15;99551.56;12203756;19;20039;-79
2022/06/01 04:44:46;;;;;;;6.50;3.78;;;;;;;11.54;82.39;99550.50;12210564;19;20028;-78
2022/06/01 04:48:48;;;;;;;;;;;;;;;11.62;82.68;99552.78;12180160;19;20074;-80
2022/06/01 04:52:49;;;;;;;7.13;4.13;;;;;;;11.65;82.13;99546.75;12201328;19;20001;-80
2022/06/01 04:56:51;;;;;;;6.05;3.72;;;;;;;11.63;82.77;99560.00;12207741;19;20105;-79
2022/06/01 05:00:53;;;;;;;8.15;4.13;;;;;;;11.62;83.18;99563.84;12180282;19;20038;-81
2022/06/01 05:04:54;;;;;;;7.20;3.58;;;;;;;11.63;83.34;99571.88;12204071;19;20006;-81
2022/06/01 05:08:56;;;;;;;6.30;3.33;;;;;;;11.65;84.30;99563.31;12189360;19;20006;-80
2022/06/01 05:12:58;;;;;;;6.15;3.85;;;;;;;11.70;84.24;99566.13;12177588;19;20772;-81
2022/06/01 05:17:00;;;;;;;6.53;3.85;;;;;;;11.76;84.03;99587.16;12203205;19;20396;-81
2022/06/01 05:21:04;;;;;;;7.72;4.25;;;;;;;11.79;84.54;99581.09;12202059;19;20011;-80
2022/06/01 05:25:07;;;;;;;8.35;4.80;;;;;;;11.81;83.62;99589.97;12186181;19;20017;-81
2022/06/01 05:29:08;;;;;;;;;;;;;;;11.82;83.66;99580.56;12180148;19;20006;-81
2022/06/01 05:33:10;;;;;;;8.38;4.03;;;;;;;11.95;82.61;99581.25;12209256;19;20332;-81
2022/06/01 05:37:12;;;;;;;10.27;4.43;;;;;;;12.07;82.64;99579.13;12166677;19;20469;-82
2022/06/01 05:41:15;;;;;;;7.10;3.92;;;;;;;12.20;81.55;99580.63;12206945;19;20015;-81
2022/06/01 05:45:18;;;;;;;10.05;3.90;;;;;;;12.27;81.14;99572.91;12205380;19;20010;-80
2022/06/01 05:49:20;;;;;;;6.27;4.17;;;;;;;12.30;81.41;99581.50;12181095;19;20067;-80
2022/06/01 05:53:23;;;;;;;8.45;3.95;;;;;;;12.41;81.16;99581.56;12211033;19;20271;-81
2022/06/01 05:57:25;;;;;;;10.38;3.70;;;;;;;12.53;81.11;99583.00;12205995;19;20093;-80
2022/06/01 06:01:27;;;;;;;9.43;4.38;;;;;;;12.67;80.41;99574.22;12188441;19;20031;-82
2022/06/01 06:09:50;;;;;;;7.65;4.85;;;;;;;13.04;78.83;99584.34;12173969;19;20011;-81
2022/06/01 06:13:52;;;;;;;9.50;4.43;;;;;;;13.22;78.35;99584.66;12194123;19;20007;-81
2022/06/01 06:17:54;;;;;;;9.68;3.70;;;;;;;13.32;78.31;99585.81;12199425;19;20110;-80
2022/06/01 06:21:55;;;;;;;7.67;4.60;;;;;;;13.41;78.17;99601.63;12182483;19;20043;-79
2022/06/01 06:25:57;;;;;;;10.02;4.85;;;;;;;13.53;77.88;99598.59;12212109;19;20023;-82
2022/06/01 06:29:59;;;;;;;9.27;4.85;;;;;;;13.75;76.84;99600.28;12209940;19;20467;-82
2022/06/01 06:34:01;;;;;;;6.60;3.80;;;;;;;13.95;75.84;99600.28;12194513;19;20014;-82
2022/06/01 06:38:04;;;;;;;7.50;4.30;;;;;;;14.28;74.77;99606.38;12203966;19;20006;-81
2022/06/01 06:42:05;;;;;;;;;;;;;;;14.65;72.82;99608.78;12205534;19;20535;-81
2022/06/01 06:46:16;;;;;;;8.63;3.42;;;;;;;14.93;71.40;99607.34;12188430;19;19982;-81
2022/06/01 06:50:19;;;;;;;6.00;3.85;;;;;;;15.21;70.15;99605.81;12198711;19;20053;-80
2022/06/01 06:54:41;;;;;;;;;;;;;;;15.20;68.54;99606.94;12180315;19;20007;-79
2022/06/01 06:58:43;;;;;;;8.98;3.42;;;;;;;15.39;68.69;99604.31;12198649;19;19968;-77
2022/06/01 07:02:45;;;;;;;10.00;3.80;;;;;;;15.62;67.97;99616.66;12203869;19;20010;-79
2022/06/01 07:06:47;;;;;;;9.97;4.10;;;;;;;15.69;67.34;99619.16;12177948;19;20006;-78
2022/06/01 07:10:48;;;;;;;8.20;4.10;;;;;;;15.78;66.83;99616.59;12198665;19;20102;-80
2022/06/01 07:14:50;;;;;;;6.88;3.42;;;;;;;15.97;66.08;99623.09;12201634;19;20003;-79
2022/06/01 07:18:54;;;;;;;8.05;4.03;;;;;;;16.21;64.56;99627.91;12181142;19;20393;-77
2022/06/01 07:22:56;;;;;;;5.05;3.20;;;;;;;16.52;63.66;99634.84;12208679;19;20021;-79
2022/06/01 07:26:58;;;;;;;6.78;3.58;;;;;;;16.75;62.27;99624.03;12206459;19;20559;-79
2022/06/01 07:31:00;;;;;;;6.20;3.47;;;;;;;16.86;61.73;99628.38;12194440;19;20085;-79
2022/06/01 07:35:04;;;;;;;8.57;3.92;;;;;;;17.08;61.23;99616.72;12198297;19;20050;-78
2022/06/01 07:43:28;;;;;;;6.13;3.35;;;;;;;17.37;59.21;99612.97;12184730;19;20031;-79
2022/06/01 07:47:29;;;;;;;6.53;3.13;;;;;;;17.79;56.98;99616.84;12195702;19;20696;-78
2022/06/01 07:51:51;;;;;;;10.73;3.83;;;;;;;18.11;56.64;99608.53;12185136;19;20043;-78
2022/06/01 07:55:53;;;;;;;3.90;2.28;;;;;;;18.11;52.94;99607.69;12210741;19;20024;-78
2022/06/01 07:59:54;;;;;;;4.72;2.30;;;;;;;18.28;52.04;99607.13;12205213;19;20015;-80
2022/06/01 08:03:59;;;;;;;3.85;2.10;;;;;;;18.44;51.46;99616.88;12181352;19;20017;-79
2022/06/01 08:08:00;;;;;;;7.72;2.45;;;;;;;18.44;50.04;99606.56;12204784;19;20014;-80
2022/06/01 08:16:23;;;;;;;4.88;1.80;;;;;;;18.69;48.09;99612.78;12188244;19;20018;-78
2022/06/01 08:20:26;;;;;;;3.65;2.10;;;;;;;18.82;47.55;99605.59;12202491;19;19999;-79
2022/06/01 08:24:30;;;;;;;3.53;2.08;;;;;;;18.70;47.23;99616.41;12220651;19;20535;-78
2022/06/01 08:28:31;;;;;;;7.85;2.22;;;;;;;18.65;47.19;99612.59;12186575;19;20076;-80
2022/06/01 08:32:33;;;;;;;4.95;1.95;;;;;;;18.90;47.84;99616.03;12209890;19;20070;-79
2022/06/01 08:36:35;;;;;;;7.03;2.42;;;;;;;19.02;47.29;99619.13;12206344;19;20371;-79
2022/06/01 08:40:58;;;;;;;5.20;2.22;;;;;;;19.06;46.49;99617.38;12207882;19;20078;-78
2022/06/01 08:45:05;;;;;;;5.05;2.10;;;;;;;19.11;46.67;99617.28;12207808;19;20139;-77
2022/06/01 08:49:14;;;;;;;6.75;2.58;;;;;;;19.30;46.24;99619.97;12191283;19;20337;-77
2022/06/01 08:53:17;;;;;;;3.83;2.10;;;;;;;19.51;46.22;99617.53;12210746;19;20007;-78
2022/06/01 08:57:28;;;;;;;2.33;1.20;;;;;;;19.67;43.62;99622.81;12206083;19;20348;-77
2022/06/01 09:01:42;;;;;;;2.47;1.45;;;;;;;19.89;42.50;99627.59;12186476;19;20007;-77
2022/06/01 09:05:53;;;;;;;4.00;1.50;;;;;;;20.06;42.60;99624.94;12197543;19;20843;-79
2022/06/01 09:10:32;;;;;;;2.72;1.40;;;;;;;20.39;40.48;99624.66;12184569;19;20030;-79
2022/06/01 09:14:39;;;;;;;3.58;1.50;;;;;;;20.72;41.47;99630.81;12208283;19;20033;-80
2022/06/01 09:18:48;;;;;;;5.85;1.50;;;;;;;20.61;41.26;99640.63;12180241;19;20090;-80
2022/06/01 09:22:53;;;;;;;1.42;1.10;;;;;;;20.56;40.68;99629.56;12211276;19;20375;-80
2022/06/01 09:27:15;;;;;;;2.25;1.42;;;;;;;20.54;39.75;99623.47;12215973;19;20395;-80
2022/06/01 09:31:27;;;;;;;1.65;1.10;;;;;;;20.75;39.83;99626.53;12198121;19;20014;-81
2022/06/01 09:35:41;;;;;;;3.33;1.35;;;;;;;21.05;39.37;99624.84;12220878;19;20010;-80
2022/06/01 09:39:56;;;;;;;2.38;1.45;;;;;;;21.38;39.12;99630.91;12229165;19;19999;-76
2022/06/01 09:44:03;;;;;;;5.20;1.48;;;;;;;21.60;38.43;99633.59;12254935;19;20052;-77
2022/06/01 09:48:13;;;;;;;4.22;1.63;;;;;;;21.68;38.11;99629.13;12242095;19;20006;-79
2022/06/01 09:52:26;;;;;;;3.10;1.40;;;;;;;21.84;37.71;99635.91;12229039;19;20010;-77
2022/06/01 09:56:34;;;;;;;1.95;1.27;;;;;;;21.96;36.89;99637.25;12244329;19;20002;-76
2022/06/01 10:09:36;;;;;;;5.70;1.52;;;;;;;21.54;38.05;99636.88;12228805;19;20018;-82
2022/06/01 10:13:52;;;;;;;5.10;1.75;;;;;;;21.59;38.98;99629.16;12181287;19;20019;-79
2022/06/01 10:18:09;;;;;;;2.53;1.10;;;;;;;22.39;37.07;99627.97;12212916;19;20006;-81
2022/06/01 10:22:36;;;;;;;2.13;1.35;;;;;;;22.97;36.34;99632.94;12189400;19;20011;-81
2022/06/01 10:26:43;;;;;;;2.47;1.05;;;;;;;23.46;35.35;99624.09;12231573;19;20019;-79
2022/06/01 10:30:51;;;;;;;2.92;1.00;;;;;;;24.07;34.72;99618.84;12204585;19;20021;-81
2022/06/01 10:35:15;;;;;;;4.30;1.05;;;;;;;24.75;33.47;99620.50;12222342;19;20086;-80
2022/06/01 10:39:23;;;;;;;4.97;1.05;;;;;;;24.82;31.94;99614.28;12241663;19;20011;-78
2022/06/01 10:43:43;;;;;;;4.88;1.00;;;;;;;24.29;31.82;99623.28;12195958;19;20068;-81
2022/06/01 10:48:09;;;;;;;3.50;0.90;;;;;;;24.04;32.20;99615.91;12208977;19;20014;-79
2022/06/01 10:52:25;;;;;;;4.05;0.90;;;;;;;23.46;32.79;99614.84;12191866;19;20024;-79
2022/06/01 10:56:27;;;;;;;1.70;0.85;;;;;;;23.41;33.30;99608.25;12198004;19;20006;-79
2022/06/01 11:00:35;;;;;;;2.60;0.98;;;;;;;23.92;33.08;99591.34;12201690;19;20007;-83
2022/06/01 11:04:47;;;;;;;3.97;1.10;;;;;;;23.32;33.77;99609.44;12184903;19;20076;-82
2022/06/01 11:09:12;;;;;;;2.83;1.00;;;;;;;22.96;34.03;99582.69;12191324;19;20520;-80
2022/06/01 11:13:35;;;;;;;1.88;0.93;;;;;;;22.94;33.63;99591.47;12189700;19;20010;-78
2022/06/01 11:18:01;;;;;;;3.67;0.98;;;;;;;23.30;33.60;99584.50;12189105;19;20011;-80
2022/06/01 11:22:18;;;;;;;3.15;1.10;;;;;;;23.19;34.00;99574.81;12177770;19;20010;-81
2022/06/01 11:26:29;;;;;;;2.03;1.13;;;;;;;23.09;34.55;99578.84;12197152;19;20082;-80
2022/06/01 11:30:45;;;;;;;3.05;1.00;;;;;;;23.40;34.00;99580.47;12200133;19;20365;-78
2022/06/01 11:35:31;;;;;;;3.13;1.10;;;;;;;24.38;32.34;99575.31;12187963;19;20071;-81
2022/06/01 11:39:59;;;;;;;3.80;1.08;;;;;;;24.72;32.59;99559.22;12197848;19;20006;-79
2022/06/01 11:44:17;;;;;;;4.40;1.00;;;;;;;25.48;30.33;99562.50;12182028;19;20087;-82
2022/06/01 11:48:24;;;;;;;3.15;1.17;;;;;;;24.96;30.83;99564.88;12209980;19;20404;-81
2022/06/01 11:52:28;;;;;;;2.00;1.00;;;;;;;24.64;31.80;99565.78;12193386;19;20584;-79
2022/06/01 11:56:30;;;;;;;1.33;0.93;;;;;;;25.29;30.46;99554.66;12215212;19;20074;-81
2022/06/01 12:00:39;;;;;;;2.97;1.17;;;;;;;25.57;30.64;99549.06;12206984;19;20087;-79
2022/06/01 12:04:52;;;;;;;2.22;0.80;;;;;;;25.44;30.18;99563.19;12192323;19;20152;-80
2022/06/01 12:09:00;;;;;;;2.60;1.13;;;;;;;25.71;30.71;99548.69;12200695;19;20003;-79
2022/06/01 12:13:28;;;;;;;2.55;0.88;;;;;;;26.43;29.26;99537.41;12198779;19;20014;-79
2022/06/01 12:17:34;;;;;;;2.53;1.20;;;;;;;26.22;28.52;99535.66;12205488;19;20544;-79
2022/06/01 12:21:58;;;;;;;2.78;0.80;;;;;;;26.00;29.89;99536.22;12190110;19;20014;-80
2022/06/01 12:30:22;;;;;;;4.47;0.90;;;;;;;28.73;27.20;99524.31;12208461;19;20010;-81
2022/06/01 12:34:33;;;;;;;4.18;0.88;;;;;;;30.14;25.18;99526.75;12186350;19;20010;-79
2022/06/01 12:38:38;;;;;;;2.70;0.95;;;;;;;30.57;22.52;99518.69;12208403;19;20084;-81
2022/06/01 12:42:55;;;;;;;2.08;0.90;;;;;;;30.03;23.09;99531.50;12186639;19;21505;-79
2022/06/01 12:46:58;;;;;;;8.02;1.20;;;;;;;29.75;23.27;99521.44;12210501;19;20021;-80
2022/06/01 12:51:02;;;;;;;9.05;1.05;;;;;;;28.58;24.50;99532.56;12205470;19;20018;-80
2022/06/01 12:55:08;;;;;;;2.15;0.80;;;;;;;27.16;25.34;99524.75;12185040;19;20097;-82
2022/06/01 12:59:14;;;;;;;1.65;0.68;;;;;;;28.01;25.12;99525.81;12214507;19;20454;-80
2022/06/01 13:03:19;;;;;;;2.85;0.93;;;;;;;29.67;23.14;99510.38;12202206;19;20074;-80
2022/06/01 13:07:28;;;;;;;3.25;1.20;;;;;;;30.68;22.06;99510.25;12185118;19;20489;-79
2022/06/01 13:11:38;;;;;;;3.05;1.00;;;;;;;31.78;20.51;99521.59;12193825;19;20002;-80
2022/06/01 13:15:42;;;;;;;1.17;0.90;;;;;;;32.10;20.77;99517.28;12185092;19;20010;-83
2022/06/01 13:20:05;;;;;;;0.90;0.90;;;;;;;32.15;20.54;99508.31;12206908;19;20011;-81
2022/06/01 13:24:09;;;;;;;2.05;0.80;;;;;;;33.08;18.88;99517.00;12210111;19;20078;-81
2022/06/01 13:28:11;;;;;;;2.00;1.33;;;;;;;33.02;18.32;99522.31;12179430;19;20015;-81
2022/06/01 13:32:17;;;;;;;1.67;0.88;;;;;;;33.77;17.49;99519.28;12211049;19;20018;-80
2022/06/01 13:36:28;;;;;;;2.65;0.90;;;;;;;34.63;17.65;99507.38;12195236;19;20361;-81
2022/06/01 13:40:41;;;;;;;1.13;0.70;;;;;;;33.09;17.80;99521.47;12180693;19;20075;-80
2022/06/01 13:44:49;;;;;;;3.00;1.13;;;;;;;31.09;20.29;99511.00;12205864;19;20010;-81
2022/06/01 13:48:55;;;;;;;1.92;0.80;;;;;;;31.47;19.49;99513.69;12189501;19;20006;-83
2022/06/01 13:53:12;;;;;;;5.32;0.98;;;;;;;32.34;19.06;99507.94;12204290;19;20007;-82
2022/06/01 13:57:20;;;;;;;1.10;0.90;;;;;;;31.84;19.17;99492.72;12207760;19;20086;-82
2022/06/01 14:01:35;;;;;;;3.20;1.10;;;;;;;32.27;18.63;99499.38;12190817;19;20074;-82
2022/06/01 14:05:45;;;;;;;2.05;0.98;;;;;;;33.04;17.79;99507.59;12199542;19;20075;-81
2022/06/01 14:09:52;;;;;;;3.10;1.05;;;;;;;34.57;17.25;99508.25;12177720;19;20021;-81
2022/06/01 14:13:55;;;;;;;3.03;0.80;;;;;;;33.99;17.06;99511.41;12198709;19;20475;-83
2022/06/01 14:17:56;;;;;;;1.52;0.90;;;;;;;35.41;16.19;99501.38;12205967;19;20110;-83
2022/06/01 14:21:58;;;;;;;2.67;0.90;;;;;;;36.44;15.40;99487.72;12177642;19;20010;-81
2022/06/01 14:30:23;;;;;;;1.65;0.70;;;;;;;37.20;14.59;99493.84;12199558;19;20404;-83
2022/06/01 14:34:27;;;;;;;1.23;0.70;;;;;;;37.85;14.31;99488.44;12178859;19;20031;-81
2022/06/01 14:38:33;;;;;;;1.55;0.80;;;;;;;38.30;14.14;99484.19;12200259;19;20074;-81
2022/06/01 14:42:35;;;;;;;2.05;0.70;;;;;;;37.23;14.75;99486.44;12206226;19;20034;-81
2022/06/01 14:46:37;;;;;;;1.55;0.82;;;;;;;34.07;16.11;99483.63;12201761;19;20074;-84
2022/06/01 14:50:38;;;;;;;2.00;0.80;;;;;;;33.52;16.54;99481.41;12220740;19;20068;-82
2022/06/01 14:54:41;;;;;;;1.25;0.77;;;;;;;32.72;17.45;99494.16;12181598;19;20026;-83
2022/06/01 14:58:43;;;;;;;1.33;0.90;;;;;;;32.59;17.74;99496.59;12210881;19;20125;-82
2022/06/01 15:02:48;;;;;;;4.07;1.00;;;;;;;32.30;18.06;99497.75;12208040;19;20062;-83
2022/06/01 15:06:58;;;;;;;2.95;1.20;;;;;;;32.43;18.17;99496.16;12179570;19;20042;-82
2022/06/01 15:11:00;;;;;;;1.73;1.25;;;;;;;31.37;18.53;99501.03;12198731;19;20020;-82
2022/06/01 15:15:02;;;;;;;8.00;1.80;;;;;;;29.21;19.67;99505.66;12196747;19;20007;-80
2022/06/01 15:19:03;;;;;;;2.17;0.95;;;;;;;28.54;20.92;99500.50;12180163;19;20034;-81
2022/06/01 15:23:06;;;;;;;0.77;0.50;;;;;;;28.49;20.45;99491.50;12217542;19;20011;-81
2022/06/01 15:27:19;;;;;;;1.85;0.60;;;;;;;27.45;21.58;99501.56;12206804;19;20011;-83
2022/06/01 15:40:02;;;;;;;2.22;0.80;;;;;;;25.09;24.00;99481.09;12190873;19;20030;-80
2022/06/01 15:44:04;;;;;;;2.22;0.68;;;;;;;25.12;23.96;99486.03;12219100;19;20082;-81
2022/06/01 15:48:07;;;;;;;1.80;0.85;;;;;;;25.02;24.03;99492.97;12205044;19;20007;-83
2022/06/01 15:52:16;;;;;;;2.83;0.60;;;;;;;24.62;24.76;99487.25;12185411;19;20503;-80
2022/06/01 15:56:18;;;;;;;4.00;0.80;;;;;;;24.36;24.53;99493.16;12207601;19;20014;-80
2022/06/01 16:00:20;;;;;;;2.03;0.80;;;;;;;23.98;24.87;99491.47;12213699;19;22472;-81
2022/06/01 16:04:23;;;;;;;2.08;1.00;;;;;;;23.57;25.73;99483.91;12189999;19;20022;-82
2022/06/01 16:08:33;;;;;;;0.95;0.60;;;;;;;23.76;25.48;99489.03;12213795;19;20574;-79
2022/06/01 16:12:37;;;;;;;2.47;0.75;;;;;;;23.85;25.87;99498.22;12196233;19;20018;-81
2022/06/01 16:16:42;;;;;;;1.50;0.70;;;;;;;23.51;26.22;99502.97;12215493;19;20010;-81
2022/06/01 16:20:45;;;;;;;2.63;0.70;;;;;;;23.38;26.36;99502.09;12209451;19;20038;-80
2022/06/01 16:24:46;;;;;;;1.75;0.70;;;;;;;23.55;26.25;99500.28;12188082;19;20177;-80
2022/06/01 16:28:49;;;;;;;2.33;0.87;;;;;;;23.54;26.38;99495.84;12210192;19;20014;-79
2022/06/01 16:32:53;;;;;;;2.53;0.57;;;;;;;23.32;27.14;99494.19;12214137;19;20073;-80
2022/06/01 16:36:55;;;;;;;2.38;0.75;;;;;;;23.12;27.70;99488.22;12179731;19;20043;-79
2022/06/01 16:40:58;;;;;;;3.55;0.80;;;;;;;22.91;27.55;99495.78;12212594;19;20010;-80
2022/06/01 16:45:00;;;;;;;3.22;0.70;;;;;;;22.71;27.62;99497.38;12217040;19;20038;-81
2022/06/01 16:49:03;;;;;;;2.00;0.70;;;;;;;22.30;28.12;99502.50;12180869;19;20499;-81
2022/06/01 16:53:05;;;;;;;2.63;0.70;;;;;;;22.13;28.38;99505.34;12212498;19;19998;-80
2022/06/01 16:57:09;;;;;;;2.90;0.90;;;;;;;22.00;28.57;99507.19;12204613;19;20368;-79
2022/06/01 17:01:11;;;;;;;2.25;0.50;;;;;;;22.06;28.50;99507.84;12193469;19;20697;-80
2022/06/01 17:05:15;;;;;;;0.60;0.57;;;;;;;22.05;28.81;99509.00;12204389;19;20453;-78
2022/06/01 17:09:18;;;;;;;4.70;0.70;;;;;;;21.91;28.96;99520.41;12212251;19;20017;-80
2022/06/01 17:13:22;;;;;;;1.23;0.70;;;;;;;21.85;29.17;99530.97;12174388;19;20010;-80
2022/06/01 17:17:30;;;;;;;2.67;0.60;;;;;;;21.85;29.60;99539.38;12204576;19;20070;-80
2022/06/01 17:21:41;;;;;;;1.52;0.85;;;;;;;21.80;29.05;99541.53;12179665;19;20018;-81
2022/06/01 17:25:44;;;;;;;1.10;0.60;;;;;;;21.73;29.42;99532.81;12210033;19;20852;-80
2022/06/01 17:29:46;;;;;;;1.60;0.63;;;;;;;21.85;29.19;99546.97;12202685;19;20015;-79
2022/06/01 17:33:48;;;;;;;1.40;0.50;;;;;;;22.04;29.43;99543.81;12185380;19;20033;-80
2022/06/01 17:37:52;;;;;;;2.23;0.73;;;;;;;21.98;28.91;99556.38;12204515;19;20006;-79
2022/06/01 17:41:55;;;;;;;1.70;0.63;;;;;;;21.74;29.49;99554.91;12203428;19;20031;-77
2022/06/01 17:45:58;;;;;;;2.40;0.57;;;;;;;21.56;29.75;99559.69;12187806;19;20018;-78
2022/06/01 17:50:00;;;;;;;1.15;0.60;;;;;;;21.53;29.53;99563.16;12199910;19;20014;-82
2022/06/01 17:54:01;;;;;;;2.85;0.55;;;;;;;21.34;30.54;99555.03;12200213;19;20011;-81
2022/06/01 17:58:06;;;;;;;4.78;0.50;;;;;;;21.19;30.65;99557.50;12183355;19;20025;-81
2022/06/01 18:02:07;;;;;;;2.08;0.70;;;;;;;21.10;31.22;99565.88;12204577;19;20019;-80
2022/06/01 18:06:11;;;;;;;2.73;0.70;;;;;;;20.92;31.60;99568.63;12207777;19;20510;-81
2022/06/01 18:10:13;;;;;;;0.70;0.55;;;;;;;20.82;32.10;99568.94;12184789;19;20027;-79
2022/06/01 18:14:15;;;;;;;2.17;0.60;;;;;;;20.67;32.11;99574.94;12208856;19;20268;-83
2022/06/01 18:18:19;;;;;;;2.25;0.75;;;;;;;20.40;32.39;99576.75;12212455;19;20468;-79
2022/06/01 18:22:21;;;;;;;0.55;0.55;;;;;;;20.27;32.71;99583.28;12176305;19;20034;-82
2022/06/01 18:26:29;;;;;;;2.22;1.02;;;;;;;20.21;32.89;99581.75;12209675;19;20011;-82
2022/06/01 18:30:33;;;;;;;2.88;0.60;;;;;;;20.09;33.66;99579.53;12209814;19;20476;-82
2022/06/01 18:34:34;;;;;;;4.35;0.80;;;;;;;19.98;34.53;99595.75;12190352;19;20042;-80
2022/06/01 18:38:36;;;;;;;3.88;0.90;;;;;;;19.79;35.61;99598.72;12192227;19;20010;-77
2022/06/01 18:42:42;;;;;;;3.95;1.02;;;;;;;19.68;37.00;99604.88;12189063;19;20500;-78
2022/06/01 18:46:44;;;;;;;1.55;0.90;;;;;;;19.48;37.57;99607.00;12214676;19;20100;-81
2022/06/01 18:50:47;;;;;;;2.55;1.17;;;;;;;19.24;37.86;99606.38;12187800;19;20385;-81
2022/06/01 18:54:49;;;;;;;3.78;1.25;;;;;;;18.95;38.83;99626.25;12175100;19;20424;-83
2022/06/01 18:58:53;;;;;;;2.43;0.90;;;;;;;18.62;39.29;99624.38;12214458;19;20547;-81
2022/06/01 19:02:55;;;;;;;3.78;1.20;;;;;;;18.35;39.72;99629.88;12210593;19;20398;-81
2022/06/01 19:06:57;;;;;;;2.45;0.90;;;;;;;18.16;40.10;99644.69;12188629;19;20027;-81
2022/06/01 19:11:01;;;;;;;5.07;1.23;;;;;;;18.02;40.65;99654.97;12215997;19;20543;-81
2022/06/01 19:15:04;;;;;;;1.33;0.60;;;;;;;17.80;41.29;99649.19;12199389;19;20083;-81
2022/06/01 19:19:26;;;;;;;3.15;1.00;;;;;;;17.59;41.53;99668.13;12184471;19;20030;-82
2022/06/01 19:23:28;;;;;;;1.35;0.80;;;;;;;17.44;41.30;99669.16;12199435;19;20010;-81
2022/06/01 19:27:39;;;;;;;1.00;0.70;;;;;;;17.27;41.77;99678.84;12199715;19;20468;-81
2022/06/01 19:31:41;;;;;;;4.47;0.90;;;;;;;17.10;42.21;99689.63;12174833;19;20022;-80
2022/06/01 19:44:04;;;;;;;1.55;0.95;;;;;;;16.97;42.69;99707.03;12191844;19;20014;-81
2022/06/01 19:44:44;;;;;;;3.03;1.10;;;;;;;16.67;43.67;99720.09;12198164;19;20003;-81
2022/06/01 19:48:46;;;;;;;3.83;1.10;;;;;;;16.52;44.03;99729.41;12180012;19;20020;-79
2022/06/01 19:52:47;;;;;;;3.55;1.25;;;;;;;16.47;44.04;99748.09;12187542;19;20011;-80
2022/06/01 19:56:49;;;;;;;2.38;1.13;;;;;;;16.40;44.39;99757.59;12194824;19;20029;-81
2022/06/01 20:00:52;;;;;;;3.25;0.98;;;;;;;16.27;43.96;99772.16;12183258;19;20123;-79